sensor_id;sensor_type;location;lat;lon;timestamp;pressure;altitude;pressure_sealevel;temperature;humidity
76229;BME280;65021;53.174;18.160;2023-04-03T00:01:43;102288.77;;;-0.16;73.25
76229;BME280;65021;53.174;18.160;2023-04-03T00:04:09;102288.60;;;-0.19;73.52
76229;BME280;65021;53.174;18.160;2023-04-03T00:06:35;102290.50;;;-0.21;73.39
76229;BME280;65021;53.174;18.160;2023-04-03T00:09:01;102290.75;;;-0.22;73.99
76229;BME280;65021;53.174;18.160;2023-04-03T00:11:28;102290.20;;;-0.24;73.70
76229;BME280;65021;53.174;18.160;2023-04-03T00:13:53;102291.70;;;-0.27;73.95
76229;BME280;65021;53.174;18.160;2023-04-03T00:16:20;102287.58;;;-0.29;73.88
76229;BME280;65021;53.174;18.160;2023-04-03T00:18:46;102288.30;;;-0.31;74.09
76229;BME280;65021;53.174;18.160;2023-04-03T00:21:13;102285.27;;;-0.34;73.58
76229;BME280;65021;53.174;18.160;2023-04-03T00:23:39;102283.73;;;-0.37;74.14
76229;BME280;65021;53.174;18.160;2023-04-03T00:26:05;102281.83;;;-0.40;73.77
76229;BME280;65021;53.174;18.160;2023-04-03T00:28:31;102282.58;;;-0.42;74.04
76229;BME280;65021;53.174;18.160;2023-04-03T00:30:57;102281.88;;;-0.44;74.33
76229;BME280;65021;53.174;18.160;2023-04-03T00:33:23;102283.10;;;-0.46;74.28
76229;BME280;65021;53.174;18.160;2023-04-03T00:35:50;102283.38;;;-0.44;75.09
76229;BME280;65021;53.174;18.160;2023-04-03T00:38:16;102283.00;;;-0.47;74.48
76229;BME280;65021;53.174;18.160;2023-04-03T00:40:44;102286.11;;;-0.49;74.69
76229;BME280;65021;53.174;18.160;2023-04-03T00:43:20;102285.55;;;-0.51;74.93
76229;BME280;65021;53.174;18.160;2023-04-03T00:45:51;102280.91;;;-0.52;74.67
76229;BME280;65021;53.174;18.160;2023-04-03T00:48:28;102280.48;;;-0.55;74.74
76229;BME280;65021;53.174;18.160;2023-04-03T00:50:55;102283.06;;;-0.57;74.92
76229;BME280;65021;53.174;18.160;2023-04-03T00:53:31;102282.62;;;-0.58;74.82
76229;BME280;65021;53.174;18.160;2023-04-03T00:55:59;102286.49;;;-0.61;74.45
76229;BME280;65021;53.174;18.160;2023-04-03T00:58:34;102289.02;;;-0.65;75.19
76229;BME280;65021;53.174;18.160;2023-04-03T01:01:06;102290.62;;;-0.64;75.05
76229;BME280;65021;53.174;18.160;2023-04-03T01:03:33;102290.92;;;-0.66;75.12
76229;BME280;65021;53.174;18.160;2023-04-03T01:06:00;102289.73;;;-0.69;75.54
76229;BME280;65021;53.174;18.160;2023-04-03T01:08:26;102286.66;;;-0.69;75.55
76229;BME280;65021;53.174;18.160;2023-04-03T01:10:52;102287.16;;;-0.71;75.56
76229;BME280;65021;53.174;18.160;2023-04-03T01:13:30;102283.82;;;-0.74;75.72
76229;BME280;65021;53.174;18.160;2023-04-03T01:15:56;102288.84;;;-0.75;75.34
76229;BME280;65021;53.174;18.160;2023-04-03T01:18:24;102287.56;;;-0.77;75.26
76229;BME280;65021;53.174;18.160;2023-04-03T01:23:55;102288.38;;;-0.80;75.31
76229;BME280;65021;53.174;18.160;2023-04-03T01:26:24;102291.50;;;-0.82;75.84
76229;BME280;65021;53.174;18.160;2023-04-03T01:28:53;102293.63;;;-0.84;76.11
76229;BME280;65021;53.174;18.160;2023-04-03T01:31:26;102295.63;;;-0.86;76.07
76229;BME280;65021;53.174;18.160;2023-04-03T01:33:54;102293.63;;;-0.86;76.24
76229;BME280;65021;53.174;18.160;2023-04-03T01:36:23;102296.95;;;-0.88;76.59
76229;BME280;65021;53.174;18.160;2023-04-03T01:38:50;102298.53;;;-0.90;76.01
76229;BME280;65021;53.174;18.160;2023-04-03T01:41:16;102302.40;;;-0.90;76.01
76229;BME280;65021;53.174;18.160;2023-04-03T01:43:43;102299.17;;;-0.91;76.01
76229;BME280;65021;53.174;18.160;2023-04-03T01:46:09;102304.70;;;-0.91;76.03
76229;BME280;65021;53.174;18.160;2023-04-03T01:48:35;102300.73;;;-0.92;76.14
76229;BME280;65021;53.174;18.160;2023-04-03T01:51:01;102304.94;;;-0.90;76.32
76229;BME280;65021;53.174;18.160;2023-04-03T01:53:27;102306.64;;;-0.89;76.70
76229;BME280;65021;53.174;18.160;2023-04-03T01:55:53;102308.30;;;-0.89;76.70
76229;BME280;65021;53.174;18.160;2023-04-03T01:58:19;102304.42;;;-0.89;76.61
76229;BME280;65021;53.174;18.160;2023-04-03T02:00:45;102304.04;;;-0.90;76.56
76229;BME280;65021;53.174;18.160;2023-04-03T02:03:11;102306.86;;;-0.91;76.66
76229;BME280;65021;53.174;18.160;2023-04-03T02:05:37;102305.44;;;-0.92;76.78
76229;BME280;65021;53.174;18.160;2023-04-03T02:08:04;102306.00;;;-0.94;76.39
76229;BME280;65021;53.174;18.160;2023-04-03T02:10:30;102306.35;;;-0.96;76.35
76229;BME280;65021;53.174;18.160;2023-04-03T02:12:56;102308.70;;;-0.98;76.81
76229;BME280;65021;53.174;18.160;2023-04-03T02:15:22;102312.92;;;-0.94;77.23
76229;BME280;65021;53.174;18.160;2023-04-03T02:17:47;102315.70;;;-0.93;77.10
76229;BME280;65021;53.174;18.160;2023-04-03T02:20:13;102314.27;;;-0.93;77.04
76229;BME280;65021;53.174;18.160;2023-04-03T02:22:40;102314.77;;;-0.94;76.92
76229;BME280;65021;53.174;18.160;2023-04-03T02:25:06;102315.05;;;-0.95;76.68
76229;BME280;65021;53.174;18.160;2023-04-03T02:27:32;102317.05;;;-0.97;76.54
76229;BME280;65021;53.174;18.160;2023-04-03T02:29:58;102321.91;;;-0.99;76.70
76229;BME280;65021;53.174;18.160;2023-04-03T02:32:24;102314.38;;;-1.00;76.85
76229;BME280;65021;53.174;18.160;2023-04-03T02:34:50;102318.04;;;-1.02;76.93
76229;BME280;65021;53.174;18.160;2023-04-03T02:37:16;102321.87;;;-1.03;77.07
76229;BME280;65021;53.174;18.160;2023-04-03T02:39:42;102323.44;;;-0.98;77.27
76229;BME280;65021;53.174;18.160;2023-04-03T02:42:08;102326.98;;;-0.97;77.15
76229;BME280;65021;53.174;18.160;2023-04-03T02:44:34;102323.27;;;-0.98;77.00
76229;BME280;65021;53.174;18.160;2023-04-03T02:47:01;102326.04;;;-0.98;77.59
76229;BME280;65021;53.174;18.160;2023-04-03T02:49:28;102324.47;;;-0.99;76.98
76229;BME280;65021;53.174;18.160;2023-04-03T02:51:54;102327.95;;;-1.03;76.96
76229;BME280;65021;53.174;18.160;2023-04-03T02:54:20;102328.44;;;-1.05;77.64
76229;BME280;65021;53.174;18.160;2023-04-03T02:56:46;102330.17;;;-1.04;77.66
76229;BME280;65021;53.174;18.160;2023-04-03T02:59:12;102330.55;;;-1.02;77.94
76229;BME280;65021;53.174;18.160;2023-04-03T03:01:38;102331.67;;;-1.00;78.14
76229;BME280;65021;53.174;18.160;2023-04-03T03:04:06;102335.29;;;-1.00;77.79
76229;BME280;65021;53.174;18.160;2023-04-03T03:06:32;102333.03;;;-1.01;77.35
76229;BME280;65021;53.174;18.160;2023-04-03T03:09:01;102340.27;;;-1.03;77.72
76229;BME280;65021;53.174;18.160;2023-04-03T03:11:28;102343.30;;;-1.04;77.65
76229;BME280;65021;53.174;18.160;2023-04-03T03:13:54;102341.80;;;-1.06;77.62
76229;BME280;65021;53.174;18.160;2023-04-03T03:16:23;102343.33;;;-1.09;77.80
76229;BME280;65021;53.174;18.160;2023-04-03T03:18:49;102343.53;;;-1.11;77.50
76229;BME280;65021;53.174;18.160;2023-04-03T03:21:17;102349.73;;;-1.13;77.75
76229;BME280;65021;53.174;18.160;2023-04-03T03:23:43;102349.26;;;-1.14;77.64
76229;BME280;65021;53.174;18.160;2023-04-03T03:26:15;102353.90;;;-1.15;77.76
76229;BME280;65021;53.174;18.160;2023-04-03T03:28:41;102350.52;;;-1.16;77.80
76229;BME280;65021;53.174;18.160;2023-04-03T03:31:08;102351.93;;;-1.18;77.54
76229;BME280;65021;53.174;18.160;2023-04-03T03:33:34;102352.40;;;-1.17;78.06
76229;BME280;65021;53.174;18.160;2023-04-03T03:36:01;102353.50;;;-1.17;77.93
76229;BME280;65021;53.174;18.160;2023-04-03T03:38:27;102354.88;;;-1.16;78.02
76229;BME280;65021;53.174;18.160;2023-04-03T03:40:53;102354.17;;;-1.14;77.96
76229;BME280;65021;53.174;18.160;2023-04-03T03:43:19;102357.05;;;-1.14;78.11
76229;BME280;65021;53.174;18.160;2023-04-03T03:45:49;102358.40;;;-1.13;78.12
76229;BME280;65021;53.174;18.160;2023-04-03T03:48:16;102359.86;;;-1.10;77.95
76229;BME280;65021;53.174;18.160;2023-04-03T03:50:42;102362.48;;;-1.13;77.92
76229;BME280;65021;53.174;18.160;2023-04-03T03:53:08;102364.42;;;-1.13;77.79
76229;BME280;65021;53.174;18.160;2023-04-03T03:55:33;102371.08;;;-1.14;77.68
76229;BME280;65021;53.174;18.160;2023-04-03T03:58:03;102369.44;;;-1.16;77.73
76229;BME280;65021;53.174;18.160;2023-04-03T04:00:29;102373.88;;;-1.17;77.83
76229;BME280;65021;53.174;18.160;2023-04-03T04:02:55;102382.61;;;-1.17;77.71
76229;BME280;65021;53.174;18.160;2023-04-03T04:05:22;102387.72;;;-1.17;77.64
76229;BME280;65021;53.174;18.160;2023-04-03T04:07:48;102382.02;;;-1.18;77.54
76229;BME280;65021;53.174;18.160;2023-04-03T04:10:14;102381.87;;;-1.19;77.60
76229;BME280;65021;53.174;18.160;2023-04-03T04:12:40;102386.06;;;-1.19;77.56
76229;BME280;65021;53.174;18.160;2023-04-03T04:15:07;102386.87;;;-1.22;77.99
76229;BME280;65021;53.174;18.160;2023-04-03T04:17:33;102384.74;;;-1.23;77.84
76229;BME280;65021;53.174;18.160;2023-04-03T04:20:04;102388.27;;;-1.23;77.79
76229;BME280;65021;53.174;18.160;2023-04-03T04:22:30;102391.58;;;-1.22;77.76
76229;BME280;65021;53.174;18.160;2023-04-03T04:24:56;102393.69;;;-1.21;77.44
76229;BME280;65021;53.174;18.160;2023-04-03T04:27:22;102392.95;;;-1.19;77.42
76229;BME280;65021;53.174;18.160;2023-04-03T04:29:58;102399.63;;;-1.14;77.36
76229;BME280;65021;53.174;18.160;2023-04-03T04:32:24;102395.94;;;-1.09;77.20
76229;BME280;65021;53.174;18.160;2023-04-03T04:34:50;102394.91;;;-1.06;77.02
76229;BME280;65021;53.174;18.160;2023-04-03T04:37:15;102392.45;;;-1.01;76.98
76229;BME280;65021;53.174;18.160;2023-04-03T04:39:41;102392.50;;;-0.95;77.02
76229;BME280;65021;53.174;18.160;2023-04-03T04:42:08;102394.28;;;-0.86;76.82
76229;BME280;65021;53.174;18.160;2023-04-03T04:44:39;102396.57;;;-0.75;76.54
76229;BME280;65021;53.174;18.160;2023-04-03T04:47:05;102398.51;;;-0.59;76.16
76229;BME280;65021;53.174;18.160;2023-04-03T04:49:31;102401.51;;;-0.48;75.93
76229;BME280;65021;53.174;18.160;2023-04-03T04:51:56;102399.79;;;-0.37;75.88
76229;BME280;65021;53.174;18.160;2023-04-03T04:54:22;102404.64;;;-0.33;75.53
76229;BME280;65021;53.174;18.160;2023-04-03T04:56:48;102408.02;;;-0.30;75.02
76229;BME280;65021;53.174;18.160;2023-04-03T04:59:14;102412.77;;;-0.26;74.74
76229;BME280;65021;53.174;18.160;2023-04-03T05:01:40;102414.27;;;-0.22;74.57
76229;BME280;65021;53.174;18.160;2023-04-03T05:04:06;102418.59;;;-0.16;74.77
76229;BME280;65021;53.174;18.160;2023-04-03T05:06:32;102420.38;;;-0.11;74.55
76229;BME280;65021;53.174;18.160;2023-04-03T05:08:58;102420.02;;;-0.04;74.64
76229;BME280;65021;53.174;18.160;2023-04-03T05:11:24;102424.61;;;0.03;74.01
76229;BME280;65021;53.174;18.160;2023-04-03T05:13:51;102424.30;;;-0.05;73.48
76229;BME280;65021;53.174;18.160;2023-04-03T05:16:17;102428.03;;;-0.03;73.96
76229;BME280;65021;53.174;18.160;2023-04-03T05:18:43;102423.36;;;-0.04;73.82
76229;BME280;65021;53.174;18.160;2023-04-03T05:21:08;102419.12;;;-0.07;73.53
76229;BME280;65021;53.174;18.160;2023-04-03T05:23:35;102422.98;;;-0.14;73.81
76229;BME280;65021;53.174;18.160;2023-04-03T05:26:00;102424.56;;;-0.19;73.95
76229;BME280;65021;53.174;18.160;2023-04-03T05:28:26;102421.54;;;-0.22;73.84
76229;BME280;65021;53.174;18.160;2023-04-03T05:30:54;102427.39;;;-0.22;73.90
76229;BME280;65021;53.174;18.160;2023-04-03T05:33:21;102426.54;;;-0.19;73.98
76229;BME280;65021;53.174;18.160;2023-04-03T05:35:47;102429.10;;;-0.19;73.40
76229;BME280;65021;53.174;18.160;2023-04-03T05:38:13;102425.22;;;-0.00;73.45
76229;BME280;65021;53.174;18.160;2023-04-03T05:40:39;102427.02;;;0.16;72.88
76229;BME280;65021;53.174;18.160;2023-04-03T05:43:05;102427.39;;;0.36;72.91
76229;BME280;65021;53.174;18.160;2023-04-03T05:45:31;102426.69;;;0.55;72.53
76229;BME280;65021;53.174;18.160;2023-04-03T05:47:57;102423.61;;;0.76;72.27
76229;BME280;65021;53.174;18.160;2023-04-03T05:50:23;102423.79;;;0.99;72.19
76229;BME280;65021;53.174;18.160;2023-04-03T05:52:50;102423.07;;;1.22;71.72
76229;BME280;65021;53.174;18.160;2023-04-03T05:55:18;102424.95;;;1.37;69.28
76229;BME280;65021;53.174;18.160;2023-04-03T05:57:44;102427.33;;;1.56;69.97
76229;BME280;65021;53.174;18.160;2023-04-03T06:00:13;102422.26;;;1.75;68.94
76229;BME280;65021;53.174;18.160;2023-04-03T06:02:41;102424.67;;;2.01;70.11
76229;BME280;65021;53.174;18.160;2023-04-03T06:05:08;102423.55;;;2.27;68.60
76229;BME280;65021;53.174;18.160;2023-04-03T06:07:37;102428.69;;;2.37;66.75
76229;BME280;65021;53.174;18.160;2023-04-03T06:10:03;102429.14;;;2.57;66.64
76229;BME280;65021;53.174;18.160;2023-04-03T06:12:29;102421.46;;;2.76;67.51
76229;BME280;65021;53.174;18.160;2023-04-03T06:14:55;102427.94;;;3.02;66.91
76229;BME280;65021;53.174;18.160;2023-04-03T06:17:21;102430.73;;;3.26;66.52
76229;BME280;65021;53.174;18.160;2023-04-03T06:19:47;102433.33;;;3.61;65.20
76229;BME280;65021;53.174;18.160;2023-04-03T06:22:14;102430.48;;;4.15;65.35
76229;BME280;65021;53.174;18.160;2023-04-03T06:24:40;102431.36;;;4.70;64.72
76229;BME280;65021;53.174;18.160;2023-04-03T06:27:06;102436.67;;;4.62;61.65
76229;BME280;65021;53.174;18.160;2023-04-03T06:29:32;102438.98;;;4.36;63.31
76229;BME280;65021;53.174;18.160;2023-04-03T06:31:58;102439.92;;;4.69;64.08
76229;BME280;65021;53.174;18.160;2023-04-03T06:34:23;102443.95;;;5.28;62.28
76229;BME280;65021;53.174;18.160;2023-04-03T06:36:50;102440.42;;;5.19;61.03
76229;BME280;65021;53.174;18.160;2023-04-03T06:39:19;102442.59;;;4.98;60.48
76229;BME280;65021;53.174;18.160;2023-04-03T06:41:49;102453.27;;;4.72;61.66
76229;BME280;65021;53.174;18.160;2023-04-03T06:44:15;102451.77;;;4.36;60.81
76229;BME280;65021;53.174;18.160;2023-04-03T06:46:43;102443.02;;;4.01;60.91
76229;BME280;65021;53.174;18.160;2023-04-03T06:49:09;102451.21;;;3.72;60.31
76229;BME280;65021;53.174;18.160;2023-04-03T06:51:35;102459.36;;;3.51;61.24
76229;BME280;65021;53.174;18.160;2023-04-03T06:54:04;102463.11;;;3.41;61.01
76229;BME280;65021;53.174;18.160;2023-04-03T06:56:30;102466.84;;;3.33;60.41
76229;BME280;65021;53.174;18.160;2023-04-03T06:58:57;102473.11;;;3.35;60.19
76229;BME280;65021;53.174;18.160;2023-04-03T07:01:25;102468.30;;;3.82;60.55
76229;BME280;65021;53.174;18.160;2023-04-03T07:03:52;102470.30;;;4.59;59.85
76229;BME280;65021;53.174;18.160;2023-04-03T07:06:18;102467.66;;;5.07;58.64
76229;BME280;65021;53.174;18.160;2023-04-03T07:08:45;102471.21;;;5.11;58.42
76229;BME280;65021;53.174;18.160;2023-04-03T07:11:13;102471.86;;;5.27;57.69
76229;BME280;65021;53.174;18.160;2023-04-03T07:13:40;102475.17;;;5.27;57.17
76229;BME280;65021;53.174;18.160;2023-04-03T07:16:07;102483.73;;;5.33;56.21
76229;BME280;65021;53.174;18.160;2023-04-03T07:18:33;102483.85;;;5.23;53.57
76229;BME280;65021;53.174;18.160;2023-04-03T07:20:59;102491.56;;;4.84;52.83
76229;BME280;65021;53.174;18.160;2023-04-03T07:23:25;102494.79;;;4.61;51.41
76229;BME280;65021;53.174;18.160;2023-04-03T07:25:52;102499.36;;;4.54;51.74
76229;BME280;65021;53.174;18.160;2023-04-03T07:28:20;102497.38;;;4.73;50.94
76229;BME280;65021;53.174;18.160;2023-04-03T07:30:49;102504.10;;;4.85;50.35
76229;BME280;65021;53.174;18.160;2023-04-03T07:33:16;102501.75;;;4.93;50.50
76229;BME280;65021;53.174;18.160;2023-04-03T07:35:43;102495.70;;;4.99;49.73
76229;BME280;65021;53.174;18.160;2023-04-03T07:38:10;102501.90;;;4.82;48.39
76229;BME280;65021;53.174;18.160;2023-04-03T07:40:36;102506.14;;;4.68;48.53
76229;BME280;65021;53.174;18.160;2023-04-03T07:43:04;102522.35;;;4.61;48.56
76229;BME280;65021;53.174;18.160;2023-04-03T07:45:31;102505.64;;;4.57;48.60
76229;BME280;65021;53.174;18.160;2023-04-03T07:47:57;102511.33;;;4.51;48.74
76229;BME280;65021;53.174;18.160;2023-04-03T07:50:23;102523.84;;;4.42;47.07
76229;BME280;65021;53.174;18.160;2023-04-03T07:52:49;102516.29;;;4.39;46.84
76229;BME280;65021;53.174;18.160;2023-04-03T07:55:16;102509.54;;;4.40;47.94
76229;BME280;65021;53.174;18.160;2023-04-03T07:57:42;102514.11;;;4.44;46.96
76229;BME280;65021;53.174;18.160;2023-04-03T08:00:09;102513.99;;;4.42;47.51
76229;BME280;65021;53.174;18.160;2023-04-03T08:02:35;102513.73;;;4.40;47.44
76229;BME280;65021;53.174;18.160;2023-04-03T08:05:01;102523.19;;;4.33;46.65
76229;BME280;65021;53.174;18.160;2023-04-03T08:07:28;102511.83;;;4.14;45.97
76229;BME280;65021;53.174;18.160;2023-04-03T08:09:54;102517.55;;;3.96;46.70
76229;BME280;65021;53.174;18.160;2023-04-03T08:12:20;102517.40;;;3.94;46.85
76229;BME280;65021;53.174;18.160;2023-04-03T08:14:46;102516.14;;;4.06;46.50
76229;BME280;65021;53.174;18.160;2023-04-03T08:17:11;102517.03;;;4.15;45.98
76229;BME280;65021;53.174;18.160;2023-04-03T08:19:38;102514.16;;;4.25;46.86
76229;BME280;65021;53.174;18.160;2023-04-03T08:22:05;102510.38;;;4.34;46.71
76229;BME280;65021;53.174;18.160;2023-04-03T08:24:32;102513.77;;;4.38;46.61
76229;BME280;65021;53.174;18.160;2023-04-03T08:26:59;102512.95;;;4.34;46.53
76229;BME280;65021;53.174;18.160;2023-04-03T08:29:25;102514.45;;;4.37;45.62
76229;BME280;65021;53.174;18.160;2023-04-03T08:31:51;102520.92;;;4.43;45.27
76229;BME280;65021;53.174;18.160;2023-04-03T08:34:18;102518.41;;;4.38;44.84
76229;BME280;65021;53.174;18.160;2023-04-03T08:36:45;102516.94;;;4.33;45.06
76229;BME280;65021;53.174;18.160;2023-04-03T08:39:11;102520.39;;;4.35;45.51
76229;BME280;65021;53.174;18.160;2023-04-03T08:41:41;102527.86;;;4.35;45.30
76229;BME280;65021;53.174;18.160;2023-04-03T08:49:58;102526.55;;;4.19;45.68
76229;BME280;65021;53.174;18.160;2023-04-03T08:52:37;102526.39;;;3.98;45.92
76229;BME280;65021;53.174;18.160;2023-04-03T08:57:40;102530.77;;;3.82;45.52
76229;BME280;65021;53.174;18.160;2023-04-03T09:02:54;102521.61;;;4.42;45.11
76229;BME280;65021;53.174;18.160;2023-04-03T09:14:26;102533.11;;;5.13;44.59
76229;BME280;65021;53.174;18.160;2023-04-03T09:17:35;102531.36;;;5.21;44.86
76229;BME280;65021;53.174;18.160;2023-04-03T09:22:45;102526.16;;;5.40;43.14
76229;BME280;65021;53.174;18.160;2023-04-03T09:25:32;102522.59;;;5.39;42.83
76229;BME280;65021;53.174;18.160;2023-04-03T09:28:02;102520.94;;;5.52;43.44
76229;BME280;65021;53.174;18.160;2023-04-03T09:30:28;102520.79;;;5.69;43.69
76229;BME280;65021;53.174;18.160;2023-04-03T09:32:57;102516.88;;;5.99;44.31
76229;BME280;65021;53.174;18.160;2023-04-03T09:35:28;102528.27;;;6.29;43.93
76229;BME280;65021;53.174;18.160;2023-04-03T09:42:58;102520.19;;;6.52;43.55
76229;BME280;65021;53.174;18.160;2023-04-03T09:45:32;102525.19;;;6.29;43.10
76229;BME280;65021;53.174;18.160;2023-04-03T09:53:36;102519.57;;;5.86;43.83
76229;BME280;65021;53.174;18.160;2023-04-03T09:56:18;102513.56;;;5.97;43.31
76229;BME280;65021;53.174;18.160;2023-04-03T09:58:51;102518.08;;;5.91;42.43
76229;BME280;65021;53.174;18.160;2023-04-03T10:01:32;102517.08;;;5.79;42.55
76229;BME280;65021;53.174;18.160;2023-04-03T10:04:08;102523.81;;;5.55;42.68
76229;BME280;65021;53.174;18.160;2023-04-03T10:06:39;102518.73;;;5.60;43.01
76229;BME280;65021;53.174;18.160;2023-04-03T10:09:30;102517.52;;;5.81;42.99
76229;BME280;65021;53.174;18.160;2023-04-03T10:14:34;102512.02;;;5.97;42.54
76229;BME280;65021;53.174;18.160;2023-04-03T10:19:45;102513.53;;;5.96;42.74
76229;BME280;65021;53.174;18.160;2023-04-03T10:22:19;102511.84;;;6.01;42.08
76229;BME280;65021;53.174;18.160;2023-04-03T10:24:57;102515.84;;;6.10;41.72
76229;BME280;65021;53.174;18.160;2023-04-03T10:27:44;102508.73;;;5.91;42.33
76229;BME280;65021;53.174;18.160;2023-04-03T10:33:08;102516.30;;;5.55;41.83
76229;BME280;65021;53.174;18.160;2023-04-03T10:38:43;102512.91;;;6.00;42.22
76229;BME280;65021;53.174;18.160;2023-04-03T10:41:21;102510.83;;;6.18;42.51
76229;BME280;65021;53.174;18.160;2023-04-03T10:44:05;102515.86;;;6.11;41.50
76229;BME280;65021;53.174;18.160;2023-04-03T10:46:39;102513.64;;;6.08;42.03
76229;BME280;65021;53.174;18.160;2023-04-03T10:52:47;102510.15;;;6.13;41.22
76229;BME280;65021;53.174;18.160;2023-04-03T10:55:46;102498.90;;;6.27;40.63
76229;BME280;65021;53.174;18.160;2023-04-03T10:58:36;102503.63;;;6.42;41.33
76229;BME280;65021;53.174;18.160;2023-04-03T11:01:11;102504.63;;;6.47;41.74
76229;BME280;65021;53.174;18.160;2023-04-03T11:03:43;102507.92;;;6.46;41.08
76229;BME280;65021;53.174;18.160;2023-04-03T11:06:14;102503.56;;;6.39;40.92
76229;BME280;65021;53.174;18.160;2023-04-03T11:11:25;102503.09;;;5.92;41.57
76229;BME280;65021;53.174;18.160;2023-04-03T11:14:10;102500.86;;;6.07;41.77
76229;BME280;65021;53.174;18.160;2023-04-03T11:16:46;102494.90;;;6.36;41.45
76229;BME280;65021;53.174;18.160;2023-04-03T11:19:31;102491.45;;;6.22;41.14
76229;BME280;65021;53.174;18.160;2023-04-03T11:22:09;102498.11;;;5.84;40.50
76229;BME280;65021;53.174;18.160;2023-04-03T11:24:39;102498.20;;;5.51;40.20
76229;BME280;65021;53.174;18.160;2023-04-03T11:27:16;102490.79;;;5.57;40.29
76229;BME280;65021;53.174;18.160;2023-04-03T11:29:45;102469.61;;;5.89;40.81
76229;BME280;65021;53.174;18.160;2023-04-03T11:35:27;102475.06;;;6.91;40.83
76229;BME280;65021;53.174;18.160;2023-04-03T11:37:54;102470.84;;;7.16;40.25
76229;BME280;65021;53.174;18.160;2023-04-03T11:40:22;102467.16;;;7.08;40.25
76229;BME280;65021;53.174;18.160;2023-04-03T11:43:28;102483.52;;;6.93;40.10
76229;BME280;65021;53.174;18.160;2023-04-03T11:46:02;102475.23;;;6.58;40.00
76229;BME280;65021;53.174;18.160;2023-04-03T11:50:59;102480.52;;;6.19;40.77
76229;BME280;65021;53.174;18.160;2023-04-03T11:53:28;102480.30;;;6.07;40.79
76229;BME280;65021;53.174;18.160;2023-04-03T11:56:02;102468.77;;;5.95;40.86
76229;BME280;65021;53.174;18.160;2023-04-03T11:58:34;102477.31;;;5.98;39.90
76229;BME280;65021;53.174;18.160;2023-04-03T12:01:05;102475.25;;;5.97;39.35
76229;BME280;65021;53.174;18.160;2023-04-03T12:08:46;102465.33;;;6.21;39.77
76229;BME280;65021;53.174;18.160;2023-04-03T12:48:57;102452.70;;;6.58;40.25
76229;BME280;65021;53.174;18.160;2023-04-03T12:51:41;102453.63;;;6.74;39.78
76229;BME280;65021;53.174;18.160;2023-04-03T12:54:16;102456.77;;;6.69;38.83
76229;BME280;65021;53.174;18.160;2023-04-03T12:56:44;102450.84;;;6.49;38.72
76229;BME280;65021;53.174;18.160;2023-04-03T13:01:44;102442.98;;;6.00;39.74
76229;BME280;65021;53.174;18.160;2023-04-03T13:04:18;102446.83;;;5.95;40.29
76229;BME280;65021;53.174;18.160;2023-04-03T13:06:44;102450.38;;;6.11;40.17
76229;BME280;65021;53.174;18.160;2023-04-03T13:09:20;102443.83;;;6.30;40.22
76229;BME280;65021;53.174;18.160;2023-04-03T13:11:49;102449.29;;;6.40;40.27
76229;BME280;65021;53.174;18.160;2023-04-03T13:14:17;102452.59;;;6.34;40.04
76229;BME280;65021;53.174;18.160;2023-04-03T13:19:28;102443.20;;;6.22;41.57
76229;BME280;65021;53.174;18.160;2023-04-03T13:22:04;102447.93;;;6.21;41.61
76229;BME280;65021;53.174;18.160;2023-04-03T13:24:34;102447.11;;;6.21;41.39
76229;BME280;65021;53.174;18.160;2023-04-03T13:27:03;102443.25;;;6.26;40.98
76229;BME280;65021;53.174;18.160;2023-04-03T13:29:38;102442.05;;;6.47;40.76
76229;BME280;65021;53.174;18.160;2023-04-03T13:32:06;102439.86;;;6.40;40.64
76229;BME280;65021;53.174;18.160;2023-04-03T13:34:38;102442.77;;;6.32;41.17
76229;BME280;65021;53.174;18.160;2023-04-03T13:37:06;102440.27;;;6.20;41.70
76229;BME280;65021;53.174;18.160;2023-04-03T13:39:36;102444.60;;;6.04;42.30
76229;BME280;65021;53.174;18.160;2023-04-03T13:42:41;102461.41;;;5.87;43.26
76229;BME280;65021;53.174;18.160;2023-04-03T13:47:45;102445.55;;;5.66;44.27
76229;BME280;65021;53.174;18.160;2023-04-03T13:53:08;102451.67;;;5.80;44.55
76229;BME280;65021;53.174;18.160;2023-04-03T13:55:54;102447.52;;;6.10;44.47
76229;BME280;65021;53.174;18.160;2023-04-03T13:58:20;102430.94;;;6.29;44.32
76229;BME280;65021;53.174;18.160;2023-04-03T14:00:54;102435.63;;;6.45;43.83
76229;BME280;65021;53.174;18.160;2023-04-03T14:03:44;102433.17;;;6.38;43.34
76229;BME280;65021;53.174;18.160;2023-04-03T14:06:13;102437.06;;;6.19;43.13
76229;BME280;65021;53.174;18.160;2023-04-03T14:08:40;102435.84;;;5.98;43.34
76229;BME280;65021;53.174;18.160;2023-04-03T14:11:13;102435.77;;;5.76;43.57
76229;BME280;65021;53.174;18.160;2023-04-03T14:13:39;102427.64;;;5.65;43.67
76229;BME280;65021;53.174;18.160;2023-04-03T14:16:06;102433.27;;;5.64;43.87
76229;BME280;65021;53.174;18.160;2023-04-03T14:18:32;102438.44;;;5.62;43.98
76229;BME280;65021;53.174;18.160;2023-04-03T14:20:58;102431.96;;;5.45;44.14
76229;BME280;65021;53.174;18.160;2023-04-03T14:23:24;102440.47;;;5.30;44.14
76229;BME280;65021;53.174;18.160;2023-04-03T14:25:49;102439.77;;;5.12;44.23
76229;BME280;65021;53.174;18.160;2023-04-03T14:28:18;102429.31;;;5.02;43.88
76229;BME280;65021;53.174;18.160;2023-04-03T14:30:46;102425.59;;;5.02;43.97
76229;BME280;65021;53.174;18.160;2023-04-03T14:33:18;102421.16;;;5.12;44.35
76229;BME280;65021;53.174;18.160;2023-04-03T14:35:45;102420.94;;;5.37;44.59
76229;BME280;65021;53.174;18.160;2023-04-03T14:38:41;102419.35;;;5.59;44.48
76229;BME280;65021;53.174;18.160;2023-04-03T14:41:07;102433.61;;;5.82;43.46
76229;BME280;65021;53.174;18.160;2023-04-03T14:43:33;102437.61;;;5.73;42.32
76229;BME280;65021;53.174;18.160;2023-04-03T14:45:59;102433.38;;;5.54;42.65
76229;BME280;65021;53.174;18.160;2023-04-03T14:48:27;102430.61;;;5.31;42.51